sensor_id;sensor_type;location;lat;lon;timestamp;pressure;altitude;pressure_sealevel;temperature;humidity
12146;BME280;6136;47.032;15.398;2022-10-31T00:01:17;98091.78;;;9.71;nan
12146;BME280;6136;47.032;15.398;2022-10-31T00:03:46;98080.59;;;9.66;nan
12146;BME280;6136;47.032;15.398;2022-10-31T00:06:15;98088.59;;;9.64;nan
12146;BME280;6136;47.032;15.398;2022-10-31T00:08:45;98086.88;;;9.63;nan
12146;BME280;6136;47.032;15.398;2022-10-31T00:11:14;98090.31;;;9.65;nan
12146;BME280;6136;47.032;15.398;2022-10-31T00:13:42;98096.47;;;9.66;nan
12146;BME280;6136;47.032;15.398;2022-10-31T00:16:14;98087.53;;;9.68;nan
12146;BME280;6136;47.032;15.398;2022-10-31T00:18:43;98090.00;;;9.71;nan
12146;BME280;6136;47.032;15.398;2022-10-31T00:21:11;98082.06;;;9.71;nan
12146;BME280;6136;47.032;15.398;2022-10-31T00:23:41;98090.00;;;9.71;nan
12146;BME280;6136;47.032;15.398;2022-10-31T00:26:09;98087.28;;;9.73;nan
12146;BME280;6136;47.032;15.398;2022-10-31T00:28:38;98081.13;;;9.72;nan
12146;BME280;6136;47.032;15.398;2022-10-31T00:31:08;98082.06;;;9.71;nan
12146;BME280;6136;47.032;15.398;2022-10-31T00:33:38;98078.56;;;9.71;nan
12146;BME280;6136;47.032;15.398;2022-10-31T00:36:07;98080.47;;;9.69;nan
12146;BME280;6136;47.032;15.398;2022-10-31T00:38:39;98078.03;;;9.64;nan
12146;BME280;6136;47.032;15.398;2022-10-31T00:41:07;98083.50;;;9.61;nan
12146;BME280;6136;47.032;15.398;2022-10-31T00:43:41;98078.50;;;9.55;nan
12146;BME280;6136;47.032;15.398;2022-10-31T00:46:09;98077.84;;;9.50;nan
12146;BME280;6136;47.032;15.398;2022-10-31T00:48:37;98076.06;;;9.51;nan
12146;BME280;6136;47.032;15.398;2022-10-31T00:51:06;98084.06;;;9.49;nan
12146;BME280;6136;47.032;15.398;2022-10-31T00:53:35;98077.00;;;9.50;nan
12146;BME280;6136;47.032;15.398;2022-10-31T00:56:03;98073.81;;;9.43;nan
12146;BME280;6136;47.032;15.398;2022-10-31T00:58:32;98071.41;;;9.39;nan
12146;BME280;6136;47.032;15.398;2022-10-31T01:01:02;98070.63;;;9.37;nan
12146;BME280;6136;47.032;15.398;2022-10-31T01:03:32;98067.09;;;9.36;nan
12146;BME280;6136;47.032;15.398;2022-10-31T01:06:02;98072.56;;;9.33;nan
12146;BME280;6136;47.032;15.398;2022-10-31T01:08:32;98071.53;;;9.35;nan
12146;BME280;6136;47.032;15.398;2022-10-31T01:11:02;98069.81;;;9.34;nan
12146;BME280;6136;47.032;15.398;2022-10-31T01:13:32;98068.97;;;9.34;nan
12146;BME280;6136;47.032;15.398;2022-10-31T01:16:04;98065.38;;;9.35;nan
12146;BME280;6136;47.032;15.398;2022-10-31T01:18:33;98058.38;;;9.34;nan
12146;BME280;6136;47.032;15.398;2022-10-31T01:21:04;98062.00;;;9.33;nan
12146;BME280;6136;47.032;15.398;2022-10-31T01:23:33;98058.63;;;9.29;nan
12146;BME280;6136;47.032;15.398;2022-10-31T01:26:04;98057.94;;;9.26;nan
12146;BME280;6136;47.032;15.398;2022-10-31T01:28:32;98051.00;;;9.23;nan
12146;BME280;6136;47.032;15.398;2022-10-31T01:31:04;98050.13;;;9.23;nan
12146;BME280;6136;47.032;15.398;2022-10-31T01:33:44;98047.78;;;9.17;nan
12146;BME280;6136;47.032;15.398;2022-10-31T01:36:15;98049.88;;;9.10;nan
12146;BME280;6136;47.032;15.398;2022-10-31T01:38:50;98043.09;;;9.05;nan
12146;BME280;6136;47.032;15.398;2022-10-31T01:41:21;98050.03;;;9.07;nan
12146;BME280;6136;47.032;15.398;2022-10-31T01:43:51;98055.59;;;9.01;nan
12146;BME280;6136;47.032;15.398;2022-10-31T01:46:24;98057.41;;;9.01;nan
12146;BME280;6136;47.032;15.398;2022-10-31T01:48:54;98046.09;;;8.97;nan
12146;BME280;6136;47.032;15.398;2022-10-31T01:51:26;98039.03;;;8.98;nan
12146;BME280;6136;47.032;15.398;2022-10-31T01:54:01;98043.09;;;9.05;nan
12146;BME280;6136;47.032;15.398;2022-10-31T01:56:32;98047.31;;;9.09;nan
12146;BME280;6136;47.032;15.398;2022-10-31T01:59:05;98040.94;;;9.13;nan
12146;BME280;6136;47.032;15.398;2022-10-31T02:01:37;98038.09;;;9.17;nan
12146;BME280;6136;47.032;15.398;2022-10-31T02:04:06;98030.91;;;9.19;nan
12146;BME280;6136;47.032;15.398;2022-10-31T02:06:38;98031.69;;;9.21;nan
12146;BME280;6136;47.032;15.398;2022-10-31T02:09:12;98029.91;;;9.22;nan
12146;BME280;6136;47.032;15.398;2022-10-31T02:11:42;98023.84;;;9.20;nan
12146;BME280;6136;47.032;15.398;2022-10-31T02:14:11;98022.75;;;9.24;nan
12146;BME280;6136;47.032;15.398;2022-10-31T02:16:42;98024.75;;;9.19;nan
12146;BME280;6136;47.032;15.398;2022-10-31T02:19:14;98017.94;;;9.15;nan
12146;BME280;6136;47.032;15.398;2022-10-31T02:21:52;98007.59;;;9.10;nan
12146;BME280;6136;47.032;15.398;2022-10-31T02:24:46;98021.56;;;9.12;nan
12146;BME280;6136;47.032;15.398;2022-10-31T02:27:49;98017.44;;;9.07;nan
12146;BME280;6136;47.032;15.398;2022-10-31T02:30:22;98015.72;;;9.06;nan
12146;BME280;6136;47.032;15.398;2022-10-31T02:33:05;98012.47;;;9.01;nan
12146;BME280;6136;47.032;15.398;2022-10-31T02:35:47;98013.63;;;8.95;nan
12146;BME280;6136;47.032;15.398;2022-10-31T02:38:26;98016.34;;;8.93;nan
12146;BME280;6136;47.032;15.398;2022-10-31T02:41:04;98021.06;;;8.87;nan
12146;BME280;6136;47.032;15.398;2022-10-31T02:43:49;98030.91;;;8.83;nan
12146;BME280;6136;47.032;15.398;2022-10-31T02:46:27;98022.22;;;8.81;nan
12146;BME280;6136;47.032;15.398;2022-10-31T02:49:03;98015.28;;;8.79;nan
12146;BME280;6136;47.032;15.398;2022-10-31T02:51:34;98023.03;;;8.82;nan
12146;BME280;6136;47.032;15.398;2022-10-31T02:54:03;98021.19;;;8.84;nan
12146;BME280;6136;47.032;15.398;2022-10-31T02:56:31;98026.66;;;8.81;nan
12146;BME280;6136;47.032;15.398;2022-10-31T02:59:01;98024.22;;;8.76;nan
12146;BME280;6136;47.032;15.398;2022-10-31T03:01:42;98031.50;;;8.71;nan
12146;BME280;6136;47.032;15.398;2022-10-31T03:04:36;98033.34;;;8.69;nan
12146;BME280;6136;47.032;15.398;2022-10-31T03:07:15;98030.88;;;8.66;nan
12146;BME280;6136;47.032;15.398;2022-10-31T03:09:54;98030.66;;;8.71;nan
12146;BME280;6136;47.032;15.398;2022-10-31T03:12:27;98033.34;;;8.69;nan
12146;BME280;6136;47.032;15.398;2022-10-31T03:15:03;98024.63;;;8.67;nan
12146;BME280;6136;47.032;15.398;2022-10-31T03:17:37;98023.50;;;8.73;nan
12146;BME280;6136;47.032;15.398;2022-10-31T03:20:11;98027.00;;;8.73;nan
12146;BME280;6136;47.032;15.398;2022-10-31T03:22:42;98028.78;;;8.73;nan
12146;BME280;6136;47.032;15.398;2022-10-31T03:25:13;98023.34;;;8.76;nan
12146;BME280;6136;47.032;15.398;2022-10-31T03:27:42;98028.44;;;8.80;nan
12146;BME280;6136;47.032;15.398;2022-10-31T03:30:20;98031.19;;;8.77;nan
12146;BME280;6136;47.032;15.398;2022-10-31T03:32:57;98026.09;;;8.74;nan
12146;BME280;6136;47.032;15.398;2022-10-31T03:35:32;98030.88;;;8.66;nan
12146;BME280;6136;47.032;15.398;2022-10-31T03:38:02;98036.22;;;8.65;nan
12146;BME280;6136;47.032;15.398;2022-10-31T03:40:35;98032.00;;;8.61;nan
12146;BME280;6136;47.032;15.398;2022-10-31T03:43:07;98032.34;;;8.53;nan
12146;BME280;6136;47.032;15.398;2022-10-31T03:45:41;98030.06;;;8.45;nan
12146;BME280;6136;47.032;15.398;2022-10-31T03:48:12;98031.22;;;8.40;nan
12146;BME280;6136;47.032;15.398;2022-10-31T03:50:47;98037.56;;;8.36;nan
12146;BME280;6136;47.032;15.398;2022-10-31T03:53:22;98035.19;;;8.30;nan
12146;BME280;6136;47.032;15.398;2022-10-31T03:55:57;98030.16;;;8.24;nan
12146;BME280;6136;47.032;15.398;2022-10-31T03:58:29;98047.78;;;8.23;nan
12146;BME280;6136;47.032;15.398;2022-10-31T04:01:01;98040.03;;;8.20;nan
12146;BME280;6136;47.032;15.398;2022-10-31T04:03:34;98041.00;;;8.17;nan
12146;BME280;6136;47.032;15.398;2022-10-31T04:06:08;98048.78;;;8.21;nan
12146;BME280;6136;47.032;15.398;2022-10-31T04:08:42;98042.66;;;8.20;nan
12146;BME280;6136;47.032;15.398;2022-10-31T04:11:16;98043.63;;;8.17;nan
12146;BME280;6136;47.032;15.398;2022-10-31T04:14:01;98043.47;;;8.22;nan
12146;BME280;6136;47.032;15.398;2022-10-31T04:16:30;98044.28;;;8.23;nan
12146;BME280;6136;47.032;15.398;2022-10-31T04:18:59;98049.44;;;8.26;nan
12146;BME280;6136;47.032;15.398;2022-10-31T04:21:28;98038.81;;;8.27;nan
12146;BME280;6136;47.032;15.398;2022-10-31T04:23:57;98046.84;;;8.24;nan
12146;BME280;6136;47.032;15.398;2022-10-31T04:26:29;98047.72;;;8.25;nan
12146;BME280;6136;47.032;15.398;2022-10-31T04:28:57;98041.00;;;8.17;nan
12146;BME280;6136;47.032;15.398;2022-10-31T04:31:26;98044.28;;;8.23;nan
12146;BME280;6136;47.032;15.398;2022-10-31T04:33:55;98045.09;;;8.25;nan
12146;BME280;6136;47.032;15.398;2022-10-31T04:36:23;98047.59;;;8.28;nan
12146;BME280;6136;47.032;15.398;2022-10-31T04:38:54;98033.47;;;8.29;nan
12146;BME280;6136;47.032;15.398;2022-10-31T04:41:38;98043.09;;;8.30;nan
12146;BME280;6136;47.032;15.398;2022-10-31T04:44:13;98041.19;;;8.33;nan
12146;BME280;6136;47.032;15.398;2022-10-31T04:46:42;98035.06;;;8.33;nan
12146;BME280;6136;47.032;15.398;2022-10-31T04:49:10;98035.69;;;8.38;nan
12146;BME280;6136;47.032;15.398;2022-10-31T04:51:39;98036.38;;;8.43;nan
12146;BME280;6136;47.032;15.398;2022-10-31T04:54:10;98030.28;;;8.41;nan
12146;BME280;6136;47.032;15.398;2022-10-31T04:56:41;98035.56;;;8.41;nan
12146;BME280;6136;47.032;15.398;2022-10-31T04:59:14;98033.84;;;8.40;nan
12146;BME280;6136;47.032;15.398;2022-10-31T05:01:53;98036.78;;;8.34;nan
12146;BME280;6136;47.032;15.398;2022-10-31T05:04:41;98039.69;;;8.28;nan
12146;BME280;6136;47.032;15.398;2022-10-31T05:07:09;98039.00;;;8.23;nan
12146;BME280;6136;47.032;15.398;2022-10-31T05:09:38;98040.88;;;8.21;nan
12146;BME280;6136;47.032;15.398;2022-10-31T05:12:07;98046.28;;;8.17;nan
12146;BME280;6136;47.032;15.398;2022-10-31T05:14:53;98043.00;;;8.12;nan
12146;BME280;6136;47.032;15.398;2022-10-31T05:17:56;98052.97;;;8.06;nan
12146;BME280;6136;47.032;15.398;2022-10-31T05:20:57;98053.31;;;7.98;nan
12146;BME280;6136;47.032;15.398;2022-10-31T05:23:33;98050.00;;;7.93;nan
12146;BME280;6136;47.032;15.398;2022-10-31T05:26:03;98052.63;;;7.93;nan
12146;BME280;6136;47.032;15.398;2022-10-31T05:28:32;98054.56;;;7.90;nan
12146;BME280;6136;47.032;15.398;2022-10-31T05:31:02;98052.97;;;7.86;nan
12146;BME280;6136;47.032;15.398;2022-10-31T05:33:30;98049.50;;;7.85;nan
12146;BME280;6136;47.032;15.398;2022-10-31T05:36:17;98049.50;;;7.85;nan
12146;BME280;6136;47.032;15.398;2022-10-31T05:38:54;98045.34;;;7.79;nan
12146;BME280;6136;47.032;15.398;2022-10-31T05:41:31;98049.91;;;7.76;nan
12146;BME280;6136;47.032;15.398;2022-10-31T05:44:12;98051.47;;;7.80;nan
12146;BME280;6136;47.032;15.398;2022-10-31T05:46:53;98056.63;;;7.83;nan
12146;BME280;6136;47.032;15.398;2022-10-31T05:49:44;98051.41;;;7.82;nan
12146;BME280;6136;47.032;15.398;2022-10-31T05:52:32;98057.59;;;7.80;nan
12146;BME280;6136;47.032;15.398;2022-10-31T05:55:08;98055.97;;;7.78;nan
12146;BME280;6136;47.032;15.398;2022-10-31T05:57:43;98056.03;;;7.76;nan
12146;BME280;6136;47.032;15.398;2022-10-31T06:00:12;98051.75;;;7.74;nan
12146;BME280;6136;47.032;15.398;2022-10-31T06:02:46;98059.53;;;7.77;nan
12146;BME280;6136;47.032;15.398;2022-10-31T06:05:23;98065.34;;;7.85;nan
12146;BME280;6136;47.032;15.398;2022-10-31T06:07:52;98071.31;;;7.89;nan
12146;BME280;6136;47.032;15.398;2022-10-31T06:10:21;98061.50;;;7.92;nan
12146;BME280;6136;47.032;15.398;2022-10-31T06:12:54;98068.41;;;7.95;nan
12146;BME280;6136;47.032;15.398;2022-10-31T06:15:55;98078.00;;;7.97;nan
12146;BME280;6136;47.032;15.398;2022-10-31T06:18:28;98077.78;;;8.02;nan
12146;BME280;6136;47.032;15.398;2022-10-31T06:20:56;98076.69;;;8.07;nan
12146;BME280;6136;47.032;15.398;2022-10-31T06:23:24;98081.47;;;8.18;nan
12146;BME280;6136;47.032;15.398;2022-10-31T06:26:10;98078.09;;;8.35;nan
12146;BME280;6136;47.032;15.398;2022-10-31T06:28:40;98074.09;;;8.45;nan
12146;BME280;6136;47.032;15.398;2022-10-31T06:31:17;98075.91;;;8.63;nan
12146;BME280;6136;47.032;15.398;2022-10-31T06:33:45;98073.34;;;8.80;nan
12146;BME280;6136;47.032;15.398;2022-10-31T06:36:14;98072.69;;;8.94;nan
12146;BME280;6136;47.032;15.398;2022-10-31T06:38:42;98077.03;;;9.14;nan
12146;BME280;6136;47.032;15.398;2022-10-31T06:41:11;98067.06;;;9.19;nan
12146;BME280;6136;47.032;15.398;2022-10-31T06:43:48;98079.53;;;9.34;nan
12146;BME280;6136;47.032;15.398;2022-10-31T06:46:30;98083.31;;;9.47;nan
12146;BME280;6136;47.032;15.398;2022-10-31T06:49:13;98075.25;;;9.85;nan
12146;BME280;6136;47.032;15.398;2022-10-31T06:51:49;98085.47;;;10.08;nan
12146;BME280;6136;47.032;15.398;2022-10-31T06:54:18;98087.84;;;10.14;nan
12146;BME280;6136;47.032;15.398;2022-10-31T06:56:46;98089.50;;;10.49;nan
12146;BME280;6136;47.032;15.398;2022-10-31T06:59:16;98091.59;;;10.76;nan
12146;BME280;6136;47.032;15.398;2022-10-31T07:02:08;98092.75;;;11.03;nan
12146;BME280;6136;47.032;15.398;2022-10-31T07:04:38;98095.91;;;11.25;nan
12146;BME280;6136;47.032;15.398;2022-10-31T07:07:07;98103.38;;;11.49;nan
12146;BME280;6136;47.032;15.398;2022-10-31T07:09:37;98110.31;;;11.83;nan
12146;BME280;6136;47.032;15.398;2022-10-31T07:12:07;98112.00;;;12.14;nan
12146;BME280;6136;47.032;15.398;2022-10-31T07:14:39;98114.72;;;12.56;nan
12146;BME280;6136;47.032;15.398;2022-10-31T07:17:07;98116.41;;;12.86;nan
12146;BME280;6136;47.032;15.398;2022-10-31T07:19:39;98114.22;;;13.06;nan
12146;BME280;6136;47.032;15.398;2022-10-31T07:22:09;98110.31;;;12.98;nan
12146;BME280;6136;47.032;15.398;2022-10-31T07:24:39;98116.41;;;13.14;nan
12146;BME280;6136;47.032;15.398;2022-10-31T07:27:13;98115.50;;;13.42;nan
12146;BME280;6136;47.032;15.398;2022-10-31T07:29:45;98119.94;;;13.55;nan
12146;BME280;6136;47.032;15.398;2022-10-31T07:32:15;98121.72;;;13.82;nan
12146;BME280;6136;47.032;15.398;2022-10-31T07:34:50;98116.91;;;14.14;nan
12146;BME280;6136;47.032;15.398;2022-10-31T07:37:27;98125.13;;;14.23;nan
12146;BME280;6136;47.032;15.398;2022-10-31T07:39:57;98125.63;;;14.43;nan
12146;BME280;6136;47.032;15.398;2022-10-31T07:42:25;98126.59;;;14.67;nan
12146;BME280;6136;47.032;15.398;2022-10-31T07:44:55;98134.25;;;14.84;nan
12146;BME280;6136;47.032;15.398;2022-10-31T07:48:02;98124.97;;;15.02;nan
12146;BME280;6136;47.032;15.398;2022-10-31T07:51:02;98127.44;;;15.29;nan
12146;BME280;6136;47.032;15.398;2022-10-31T07:53:49;98126.38;;;15.32;nan
12146;BME280;6136;47.032;15.398;2022-10-31T07:56:23;98131.63;;;15.70;nan
12146;BME280;6136;47.032;15.398;2022-10-31T07:58:52;98127.66;;;15.99;nan
12146;BME280;6136;47.032;15.398;2022-10-31T08:01:21;98133.13;;;16.09;nan
12146;BME280;6136;47.032;15.398;2022-10-31T08:04:09;98132.91;;;16.12;nan
12146;BME280;6136;47.032;15.398;2022-10-31T08:07:00;98125.53;;;16.26;nan
12146;BME280;6136;47.032;15.398;2022-10-31T08:09:35;98131.53;;;16.30;nan
12146;BME280;6136;47.032;15.398;2022-10-31T08:12:13;98126.69;;;16.46;nan
12146;BME280;6136;47.032;15.398;2022-10-31T08:14:42;98127.97;;;16.76;nan
12146;BME280;6136;47.032;15.398;2022-10-31T08:17:12;98128.72;;;16.78;nan
12146;BME280;6136;47.032;15.398;2022-10-31T08:19:50;98126.94;;;17.12;nan
12146;BME280;6136;47.032;15.398;2022-10-31T08:22:21;98130.94;;;17.17;nan
12146;BME280;6136;47.032;15.398;2022-10-31T08:24:49;98128.31;;;17.49;nan
12146;BME280;6136;47.032;15.398;2022-10-31T08:27:17;98125.38;;;17.74;nan
12146;BME280;6136;47.032;15.398;2022-10-31T08:29:46;98123.66;;;17.84;nan
12146;BME280;6136;47.032;15.398;2022-10-31T08:32:15;98122.97;;;18.03;nan
12146;BME280;6136;47.032;15.398;2022-10-31T08:35:02;98125.34;;;18.17;nan
12146;BME280;6136;47.032;15.398;2022-10-31T08:37:52;98126.09;;;18.61;nan
12146;BME280;6136;47.032;15.398;2022-10-31T08:40:25;98122.75;;;18.69;nan
12146;BME280;6136;47.032;15.398;2022-10-31T08:42:58;98121.31;;;18.85;nan
12146;BME280;6136;47.032;15.398;2022-10-31T08:45:27;98109.88;;;19.23;nan
12146;BME280;6136;47.032;15.398;2022-10-31T08:48:02;98119.56;;;19.45;nan
12146;BME280;6136;47.032;15.398;2022-10-31T08:50:33;98115.38;;;19.52;nan
12146;BME280;6136;47.032;15.398;2022-10-31T08:53:03;98122.47;;;19.72;nan
12146;BME280;6136;47.032;15.398;2022-10-31T08:55:34;98120.97;;;19.99;nan
12146;BME280;6136;47.032;15.398;2022-10-31T08:58:23;98117.72;;;20.05;nan
12146;BME280;6136;47.032;15.398;2022-10-31T09:00:59;98126.66;;;20.44;nan
12146;BME280;6136;47.032;15.398;2022-10-31T09:03:30;98117.59;;;20.06;nan
12146;BME280;6136;47.032;15.398;2022-10-31T09:06:00;98122.81;;;20.17;nan
12146;BME280;6136;47.032;15.398;2022-10-31T09:08:30;98116.16;;;20.50;nan
12146;BME280;6136;47.032;15.398;2022-10-31T09:11:00;98110.88;;;20.78;nan
12146;BME280;6136;47.032;15.398;2022-10-31T09:13:49;98109.97;;;20.97;nan
12146;BME280;6136;47.032;15.398;2022-10-31T09:16:36;98103.41;;;20.99;nan
12146;BME280;6136;47.032;15.398;2022-10-31T09:19:10;98107.84;;;21.37;nan
12146;BME280;6136;47.032;15.398;2022-10-31T09:21:38;98103.06;;;21.76;nan
12146;BME280;6136;47.032;15.398;2022-10-31T09:24:06;98110.31;;;22.64;nan
12146;BME280;6136;47.032;15.398;2022-10-31T09:26:37;98113.25;;;22.53;nan
12146;BME280;6136;47.032;15.398;2022-10-31T09:29:18;98105.41;;;22.42;nan
12146;BME280;6136;47.032;15.398;2022-10-31T09:31:53;98114.66;;;22.57;nan
12146;BME280;6136;47.032;15.398;2022-10-31T09:34:34;98104.34;;;22.78;nan
12146;BME280;6136;47.032;15.398;2022-10-31T09:37:04;98105.94;;;23.15;nan
12146;BME280;6136;47.032;15.398;2022-10-31T09:39:34;98106.16;;;23.55;nan
12146;BME280;6136;47.032;15.398;2022-10-31T09:42:39;98106.84;;;23.66;nan
12146;BME280;6136;47.032;15.398;2022-10-31T09:45:21;98096.78;;;23.92;nan
12146;BME280;6136;47.032;15.398;2022-10-31T09:48:00;98104.97;;;24.41;nan
12146;BME280;6136;47.032;15.398;2022-10-31T09:50:37;98106.94;;;23.98;nan
12146;BME280;6136;47.032;15.398;2022-10-31T09:53:39;98104.28;;;24.63;nan
12146;BME280;6136;47.032;15.398;2022-10-31T09:56:12;98101.00;;;23.94;nan
12146;BME280;6136;47.032;15.398;2022-10-31T09:58:43;98100.22;;;24.26;nan
12146;BME280;6136;47.032;15.398;2022-10-31T10:01:23;98100.63;;;23.81;nan
12146;BME280;6136;47.032;15.398;2022-10-31T10:04:00;98092.25;;;23.50;nan
12146;BME280;6136;47.032;15.398;2022-10-31T10:06:50;98089.88;;;24.14;nan
12146;BME280;6136;47.032;15.398;2022-10-31T10:09:43;98090.50;;;25.05;nan
12146;BME280;6136;47.032;15.398;2022-10-31T10:12:40;98093.44;;;25.03;nan
12146;BME280;6136;47.032;15.398;2022-10-31T10:15:41;98098.16;;;24.77;nan
12146;BME280;6136;47.032;15.398;2022-10-31T10:18:23;98086.00;;;24.32;nan
12146;BME280;6136;47.032;15.398;2022-10-31T10:21:05;98091.59;;;24.55;nan
12146;BME280;6136;47.032;15.398;2022-10-31T10:23:46;98084.66;;;24.36;nan
12146;BME280;6136;47.032;15.398;2022-10-31T10:26:20;98080.56;;;24.89;nan
12146;BME280;6136;47.032;15.398;2022-10-31T10:28:54;98082.81;;;24.37;nan
12146;BME280;6136;47.032;15.398;2022-10-31T10:31:27;98086.34;;;24.54;nan
12146;BME280;6136;47.032;15.398;2022-10-31T10:34:02;98071.97;;;25.33;nan
12146;BME280;6136;47.032;15.398;2022-10-31T10:36:38;98063.84;;;25.25;nan
12146;BME280;6136;47.032;15.398;2022-10-31T10:39:15;98066.88;;;26.22;nan
12146;BME280;6136;47.032;15.398;2022-10-31T10:41:47;98071.91;;;25.49;nan
12146;BME280;6136;47.032;15.398;2022-10-31T10:44:29;98064.66;;;25.33;nan
12146;BME280;6136;47.032;15.398;2022-10-31T10:47:15;98065.31;;;26.05;nan
12146;BME280;6136;47.032;15.398;2022-10-31T10:50:02;98056.88;;;25.30;nan
12146;BME280;6136;47.032;15.398;2022-10-31T10:52:39;98058.38;;;25.72;nan
12146;BME280;6136;47.032;15.398;2022-10-31T10:55:25;98055.47;;;26.04;nan
12146;BME280;6136;47.032;15.398;2022-10-31T10:57:59;98047.00;;;26.22;nan
12146;BME280;6136;47.032;15.398;2022-10-31T11:00:30;98049.59;;;26.76;nan
12146;BME280;6136;47.032;15.398;2022-10-31T11:02:59;98047.50;;;27.00;nan
12146;BME280;6136;47.032;15.398;2022-10-31T11:05:33;98042.88;;;27.60;nan
12146;BME280;6136;47.032;15.398;2022-10-31T11:08:03;98044.78;;;27.00;nan
12146;BME280;6136;47.032;15.398;2022-10-31T11:10:34;98041.09;;;27.37;nan
12146;BME280;6136;47.032;15.398;2022-10-31T11:13:14;98040.25;;;26.18;nan
12146;BME280;6136;47.032;15.398;2022-10-31T11:15:56;98036.78;;;27.28;nan
12146;BME280;6136;47.032;15.398;2022-10-31T11:18:27;98028.03;;;26.59;nan
12146;BME280;6136;47.032;15.398;2022-10-31T11:20:58;98037.81;;;26.98;nan
12146;BME280;6136;47.032;15.398;2022-10-31T11:23:28;98034.78;;;26.63;nan
12146;BME280;6136;47.032;15.398;2022-10-31T11:25:59;98028.47;;;26.03;nan
12146;BME280;6136;47.032;15.398;2022-10-31T11:28:31;98024.66;;;25.89;nan
12146;BME280;6136;47.032;15.398;2022-10-31T11:31:06;98025.16;;;25.93;nan
12146;BME280;6136;47.032;15.398;2022-10-31T11:33:37;98020.59;;;25.93;nan
12146;BME280;6136;47.032;15.398;2022-10-31T11:36:15;98020.91;;;26.88;nan
12146;BME280;6136;47.032;15.398;2022-10-31T11:38:44;98012.97;;;25.88;nan
12146;BME280;6136;47.032;15.398;2022-10-31T11:41:16;98013.16;;;26.99;nan
12146;BME280;6136;47.032;15.398;2022-10-31T11:43:48;98004.63;;;27.02;nan
12146;BME280;6136;47.032;15.398;2022-10-31T11:46:21;98009.56;;;25.86;nan
12146;BME280;6136;47.032;15.398;2022-10-31T11:48:51;98007.41;;;26.80;nan
12146;BME280;6136;47.032;15.398;2022-10-31T11:51:23;97999.00;;;27.04;nan
12146;BME280;6136;47.032;15.398;2022-10-31T11:53:54;97996.38;;;26.96;nan
12146;BME280;6136;47.032;15.398;2022-10-31T11:56:37;98005.41;;;27.62;nan
12146;BME280;6136;47.032;15.398;2022-10-31T11:59:15;97993.72;;;27.17;nan
12146;BME280;6136;47.032;15.398;2022-10-31T12:01:48;98000.56;;;28.42;nan
12146;BME280;6136;47.032;15.398;2022-10-31T12:04:16;97996.59;;;27.81;nan
12146;BME280;6136;47.032;15.398;2022-10-31T12:06:46;97993.75;;;27.68;nan
12146;BME280;6136;47.032;15.398;2022-10-31T12:09:20;97993.25;;;26.99;nan
12146;BME280;6136;47.032;15.398;2022-10-31T12:12:02;97988.38;;;27.24;nan
12146;BME280;6136;47.032;15.398;2022-10-31T12:14:41;97984.53;;;26.89;nan
12146;BME280;6136;47.032;15.398;2022-10-31T12:17:15;97981.22;;;25.89;nan
12146;BME280;6136;47.032;15.398;2022-10-31T12:19:50;97978.34;;;26.65;nan
12146;BME280;6136;47.032;15.398;2022-10-31T12:22:29;97978.56;;;27.44;nan
12146;BME280;6136;47.032;15.398;2022-10-31T12:25:12;97980.59;;;27.06;nan
12146;BME280;6136;47.032;15.398;2022-10-31T12:28:10;97969.41;;;26.42;nan
12146;BME280;6136;47.032;15.398;2022-10-31T12:30:54;97966.44;;;26.66;nan
12146;BME280;6136;47.032;15.398;2022-10-31T12:33:42;97970.59;;;26.40;nan
12146;BME280;6136;47.032;15.398;2022-10-31T12:36:21;97965.69;;;26.58;nan
12146;BME280;6136;47.032;15.398;2022-10-31T12:39:06;97967.91;;;27.13;nan
12146;BME280;6136;47.032;15.398;2022-10-31T12:41:45;97965.44;;;26.97;nan
12146;BME280;6136;47.032;15.398;2022-10-31T12:44:29;97967.19;;;27.19;nan
12146;BME280;6136;47.032;15.398;2022-10-31T12:47:12;97959.66;;;26.77;nan
12146;BME280;6136;47.032;15.398;2022-10-31T12:49:56;97952.34;;;27.22;nan
12146;BME280;6136;47.032;15.398;2022-10-31T12:52:41;97958.47;;;27.09;nan
12146;BME280;6136;47.032;15.398;2022-10-31T12:55:30;97953.84;;;26.36;nan
12146;BME280;6136;47.032;15.398;2022-10-31T12:58:07;97953.53;;;26.31;nan
12146;BME280;6136;47.032;15.398;2022-10-31T13:00:43;97961.06;;;26.44;nan
12146;BME280;6136;47.032;15.398;2022-10-31T13:03:21;97949.53;;;26.71;nan
12146;BME280;6136;47.032;15.398;2022-10-31T13:05:54;97951.91;;;26.59;nan
12146;BME280;6136;47.032;15.398;2022-10-31T13:08:29;97945.09;;;26.26;nan
12146;BME280;6136;47.032;15.398;2022-10-31T13:11:06;97957.59;;;25.44;nan
12146;BME280;6136;47.032;15.398;2022-10-31T13:13:41;97950.25;;;25.22;nan
12146;BME280;6136;47.032;15.398;2022-10-31T13:16:14;97949.66;;;25.65;nan
12146;BME280;6136;47.032;15.398;2022-10-31T13:18:47;97952.16;;;26.12;nan
12146;BME280;6136;47.032;15.398;2022-10-31T13:21:20;97950.09;;;26.00;nan
12146;BME280;6136;47.032;15.398;2022-10-31T13:23:50;97943.44;;;25.79;nan
12146;BME280;6136;47.032;15.398;2022-10-31T13:26:26;97946.44;;;25.70;nan
12146;BME280;6136;47.032;15.398;2022-10-31T13:29:18;97942.31;;;24.81;nan
12146;BME280;6136;47.032;15.398;2022-10-31T13:31:50;97937.44;;;25.07;nan
12146;BME280;6136;47.032;15.398;2022-10-31T13:34:25;97934.59;;;25.32;nan
12146;BME280;6136;47.032;15.398;2022-10-31T13:37:02;97941.00;;;25.39;nan
12146;BME280;6136;47.032;15.398;2022-10-31T13:39:55;97934.19;;;24.73;nan
12146;BME280;6136;47.032;15.398;2022-10-31T13:42:40;97930.38;;;24.51;nan
12146;BME280;6136;47.032;15.398;2022-10-31T13:45:16;97930.00;;;24.54;nan
12146;BME280;6136;47.032;15.398;2022-10-31T13:47:59;97939.75;;;24.08;nan
12146;BME280;6136;47.032;15.398;2022-10-31T13:50:30;97942.09;;;24.03;nan
12146;BME280;6136;47.032;15.398;2022-10-31T13:53:12;97943.06;;;23.45;nan
12146;BME280;6136;47.032;15.398;2022-10-31T13:55:42;97950.75;;;23.66;nan
12146;BME280;6136;47.032;15.398;2022-10-31T13:58:23;97949.22;;;23.55;nan
12146;BME280;6136;47.032;15.398;2022-10-31T14:01:12;97944.66;;;23.06;nan
12146;BME280;6136;47.032;15.398;2022-10-31T14:03:44;97936.91;;;22.35;nan
12146;BME280;6136;47.032;15.398;2022-10-31T14:06:40;97944.50;;;22.65;nan
12146;BME280;6136;47.032;15.398;2022-10-31T14:09:25;97939.00;;;22.49;nan
12146;BME280;6136;47.032;15.398;2022-10-31T14:11:55;97932.50;;;22.68;nan